sensor_id;sensor_type;location;lat;lon;timestamp;temperature;humidity
67572;SHT31;54397;47.506;19.158;2022-12-20T00:02:47;0.24;77.70
67572;SHT31;54397;47.506;19.158;2022-12-20T00:06:10;0.24;77.69
67572;SHT31;54397;47.506;19.158;2022-12-20T00:09:32;0.29;78.79
67572;SHT31;54397;47.506;19.158;2022-12-20T00:12:54;0.28;77.88
67572;SHT31;54397;47.506;19.158;2022-12-20T00:16:20;0.30;78.66
67572;SHT31;54397;47.506;19.158;2022-12-20T00:19:43;0.28;78.44
67572;SHT31;54397;47.506;19.158;2022-12-20T00:23:05;0.41;78.55
67572;SHT31;54397;47.506;19.158;2022-12-20T00:26:30;0.42;77.77
67572;SHT31;54397;47.506;19.158;2022-12-20T00:29:54;0.49;77.74
67572;SHT31;54397;47.506;19.158;2022-12-20T00:33:16;0.60;77.65
67572;SHT31;54397;47.506;19.158;2022-12-20T00:36:38;0.73;76.54
67572;SHT31;54397;47.506;19.158;2022-12-20T00:40:00;0.77;76.49
67572;SHT31;54397;47.506;19.158;2022-12-20T00:43:22;0.69;76.41
67572;SHT31;54397;47.506;19.158;2022-12-20T00:46:43;0.52;77.09
67572;SHT31;54397;47.506;19.158;2022-12-20T00:50:05;0.57;77.37
67572;SHT31;54397;47.506;19.158;2022-12-20T00:53:28;0.60;77.49
67572;SHT31;54397;47.506;19.158;2022-12-20T00:56:49;0.63;77.22
67572;SHT31;54397;47.506;19.158;2022-12-20T01:00:11;0.50;78.01
67572;SHT31;54397;47.506;19.158;2022-12-20T01:03:36;0.54;77.11
67572;SHT31;54397;47.506;19.158;2022-12-20T01:06:58;0.50;77.80
67572;SHT31;54397;47.506;19.158;2022-12-20T01:10:19;0.60;77.55
67572;SHT31;54397;47.506;19.158;2022-12-20T01:13:44;0.60;77.93
67572;SHT31;54397;47.506;19.158;2022-12-20T01:17:06;0.60;76.90
67572;SHT31;54397;47.506;19.158;2022-12-20T01:20:28;0.70;77.40
67572;SHT31;54397;47.506;19.158;2022-12-20T01:23:50;0.70;77.41
67572;SHT31;54397;47.506;19.158;2022-12-20T01:27:12;0.90;77.48
67572;SHT31;54397;47.506;19.158;2022-12-20T01:30:34;0.90;76.96
67572;SHT31;54397;47.506;19.158;2022-12-20T01:33:55;0.87;77.24
67572;SHT31;54397;47.506;19.158;2022-12-20T01:37:17;0.91;77.05
67572;SHT31;54397;47.506;19.158;2022-12-20T01:40:39;0.92;76.35
67572;SHT31;54397;47.506;19.158;2022-12-20T01:44:47;0.94;76.44
67572;SHT31;54397;47.506;19.158;2022-12-20T01:47:47;0.91;76.19
67572;SHT31;54397;47.506;19.158;2022-12-20T01:51:09;0.83;76.19
67572;SHT31;54397;47.506;19.158;2022-12-20T01:54:33;0.83;76.41
67572;SHT31;54397;47.506;19.158;2022-12-20T01:58:01;0.79;76.67
67572;SHT31;54397;47.506;19.158;2022-12-20T02:01:24;0.76;76.89
67572;SHT31;54397;47.506;19.158;2022-12-20T02:04:49;0.83;76.33
67572;SHT31;54397;47.506;19.158;2022-12-20T02:08:15;0.79;76.86
67572;SHT31;54397;47.506;19.158;2022-12-20T02:12:00;0.80;76.37
67572;SHT31;54397;47.506;19.158;2022-12-20T02:15:38;0.95;75.99
67572;SHT31;54397;47.506;19.158;2022-12-20T02:19:25;0.84;76.01
67572;SHT31;54397;47.506;19.158;2022-12-20T02:30:15;0.66;78.03
67572;SHT31;54397;47.506;19.158;2022-12-20T02:33:41;0.64;77.38
67572;SHT31;54397;47.506;19.158;2022-12-20T02:37:05;0.72;77.36
67572;SHT31;54397;47.506;19.158;2022-12-20T02:40:30;0.76;77.17
67572;SHT31;54397;47.506;19.158;2022-12-20T02:43:58;0.87;76.82
67572;SHT31;54397;47.506;19.158;2022-12-20T02:47:52;0.88;76.40
67572;SHT31;54397;47.506;19.158;2022-12-20T02:51:17;0.83;76.49
67572;SHT31;54397;47.506;19.158;2022-12-20T02:54:40;0.80;76.56
67572;SHT31;54397;47.506;19.158;2022-12-20T02:58:06;0.79;75.85
67572;SHT31;54397;47.506;19.158;2022-12-20T03:01:33;0.80;75.90
67572;SHT31;54397;47.506;19.158;2022-12-20T03:05:01;0.87;76.14
67572;SHT31;54397;47.506;19.158;2022-12-20T03:08:23;0.98;75.53
67572;SHT31;54397;47.506;19.158;2022-12-20T03:11:48;0.74;75.90
67572;SHT31;54397;47.506;19.158;2022-12-20T03:15:10;0.60;76.37
67572;SHT31;54397;47.506;19.158;2022-12-20T03:18:32;0.72;76.72
67572;SHT31;54397;47.506;19.158;2022-12-20T03:21:54;0.73;76.43
67572;SHT31;54397;47.506;19.158;2022-12-20T03:25:16;0.84;76.63
67572;SHT31;54397;47.506;19.158;2022-12-20T03:28:40;0.84;76.25
67572;SHT31;54397;47.506;19.158;2022-12-20T03:32:01;0.80;75.93
67572;SHT31;54397;47.506;19.158;2022-12-20T03:35:23;0.69;76.10
67572;SHT31;54397;47.506;19.158;2022-12-20T03:38:47;0.73;76.12
67572;SHT31;54397;47.506;19.158;2022-12-20T03:42:09;0.90;76.33
67572;SHT31;54397;47.506;19.158;2022-12-20T03:45:30;0.60;76.07
67572;SHT31;54397;47.506;19.158;2022-12-20T03:48:52;0.67;76.90
67572;SHT31;54397;47.506;19.158;2022-12-20T03:52:18;0.64;77.08
67572;SHT31;54397;47.506;19.158;2022-12-20T03:55:40;0.76;75.59
67572;SHT31;54397;47.506;19.158;2022-12-20T03:59:05;0.77;76.17
67572;SHT31;54397;47.506;19.158;2022-12-20T04:02:27;1.00;75.71
67572;SHT31;54397;47.506;19.158;2022-12-20T04:05:49;0.84;75.88
67572;SHT31;54397;47.506;19.158;2022-12-20T04:09:11;0.79;76.02
67572;SHT31;54397;47.506;19.158;2022-12-20T04:12:37;0.53;76.85
67572;SHT31;54397;47.506;19.158;2022-12-20T04:15:58;0.48;77.03
67572;SHT31;54397;47.506;19.158;2022-12-20T04:19:22;0.56;76.51
67572;SHT31;54397;47.506;19.158;2022-12-20T04:22:46;0.56;76.59
67572;SHT31;54397;47.506;19.158;2022-12-20T04:26:09;0.57;77.31
67572;SHT31;54397;47.506;19.158;2022-12-20T04:29:31;0.59;76.60
67572;SHT31;54397;47.506;19.158;2022-12-20T04:32:52;0.48;76.82
67572;SHT31;54397;47.506;19.158;2022-12-20T04:36:15;0.56;76.90
67572;SHT31;54397;47.506;19.158;2022-12-20T04:39:36;0.36;77.41
67572;SHT31;54397;47.506;19.158;2022-12-20T04:42:58;0.16;77.75
67572;SHT31;54397;47.506;19.158;2022-12-20T04:46:20;0.24;78.23
67572;SHT31;54397;47.506;19.158;2022-12-20T04:49:42;0.35;78.16
67572;SHT31;54397;47.506;19.158;2022-12-20T04:53:04;0.46;77.93
67572;SHT31;54397;47.506;19.158;2022-12-20T04:56:44;0.56;78.88
67572;SHT31;54397;47.506;19.158;2022-12-20T05:00:06;0.73;77.46
67572;SHT31;54397;47.506;19.158;2022-12-20T05:03:28;0.79;76.87
67572;SHT31;54397;47.506;19.158;2022-12-20T05:06:49;0.81;76.95
67572;SHT31;54397;47.506;19.158;2022-12-20T05:10:11;0.85;76.08
67572;SHT31;54397;47.506;19.158;2022-12-20T05:13:33;0.73;76.36
67572;SHT31;54397;47.506;19.158;2022-12-20T05:16:55;0.66;77.11
67572;SHT31;54397;47.506;19.158;2022-12-20T05:20:16;0.76;77.28
67572;SHT31;54397;47.506;19.158;2022-12-20T05:23:38;0.80;76.38
67572;SHT31;54397;47.506;19.158;2022-12-20T05:27:18;0.85;76.83
67572;SHT31;54397;47.506;19.158;2022-12-20T05:30:40;0.88;76.52
67572;SHT31;54397;47.506;19.158;2022-12-20T05:34:04;0.92;76.44
67572;SHT31;54397;47.506;19.158;2022-12-20T05:37:26;0.97;77.07
67572;SHT31;54397;47.506;19.158;2022-12-20T05:40:48;0.94;75.86
67572;SHT31;54397;47.506;19.158;2022-12-20T05:44:12;0.88;75.83
67572;SHT31;54397;47.506;19.158;2022-12-20T05:47:34;0.66;76.87
67572;SHT31;54397;47.506;19.158;2022-12-20T05:50:59;0.74;76.31
67572;SHT31;54397;47.506;19.158;2022-12-20T05:54:21;0.74;76.95
67572;SHT31;54397;47.506;19.158;2022-12-20T05:57:43;0.79;77.30
67572;SHT31;54397;47.506;19.158;2022-12-20T06:01:06;0.77;76.64
67572;SHT31;54397;47.506;19.158;2022-12-20T06:04:30;0.85;76.86
67572;SHT31;54397;47.506;19.158;2022-12-20T06:07:51;0.81;76.54
67572;SHT31;54397;47.506;19.158;2022-12-20T06:11:13;0.88;76.65
67572;SHT31;54397;47.506;19.158;2022-12-20T06:14:35;0.79;77.18
67572;SHT31;54397;47.506;19.158;2022-12-20T06:17:58;0.69;76.65
67572;SHT31;54397;47.506;19.158;2022-12-20T06:21:20;0.80;75.76
67572;SHT31;54397;47.506;19.158;2022-12-20T06:24:44;0.73;76.54
67572;SHT31;54397;47.506;19.158;2022-12-20T06:28:11;0.52;76.88
67572;SHT31;54397;47.506;19.158;2022-12-20T06:31:33;1.04;90.05
67572;SHT31;54397;47.506;19.158;2022-12-20T06:34:58;1.48;90.76
67572;SHT31;54397;47.506;19.158;2022-12-20T06:38:19;1.93;89.55
67572;SHT31;54397;47.506;19.158;2022-12-20T06:41:43;1.55;77.80
67572;SHT31;54397;47.506;19.158;2022-12-20T06:45:05;1.80;83.03
67572;SHT31;54397;47.506;19.158;2022-12-20T06:48:28;1.93;79.51
67572;SHT31;54397;47.506;19.158;2022-12-20T06:51:50;1.55;74.02
67572;SHT31;54397;47.506;19.158;2022-12-20T06:55:11;1.45;74.25
67572;SHT31;54397;47.506;19.158;2022-12-20T06:58:33;1.01;75.44
67572;SHT31;54397;47.506;19.158;2022-12-20T07:01:55;0.62;77.04
67572;SHT31;54397;47.506;19.158;2022-12-20T07:05:19;0.70;77.15
67572;SHT31;54397;47.506;19.158;2022-12-20T07:08:43;0.59;77.09
67572;SHT31;54397;47.506;19.158;2022-12-20T07:12:08;0.49;77.32
67572;SHT31;54397;47.506;19.158;2022-12-20T07:15:30;0.46;78.26
67572;SHT31;54397;47.506;19.158;2022-12-20T07:18:53;0.38;77.99
67572;SHT31;54397;47.506;19.158;2022-12-20T07:22:15;0.52;77.43
67572;SHT31;54397;47.506;19.158;2022-12-20T07:25:37;0.67;78.20
67572;SHT31;54397;47.506;19.158;2022-12-20T07:28:58;1.24;87.62
67572;SHT31;54397;47.506;19.158;2022-12-20T07:32:23;1.60;81.20
67572;SHT31;54397;47.506;19.158;2022-12-20T07:35:46;1.76;81.21
67572;SHT31;54397;47.506;19.158;2022-12-20T07:39:15;1.55;74.83
67572;SHT31;54397;47.506;19.158;2022-12-20T07:42:39;1.63;82.60
67572;SHT31;54397;47.506;19.158;2022-12-20T07:46:14;2.13;80.84
67572;SHT31;54397;47.506;19.158;2022-12-20T07:49:36;2.01;74.70
67572;SHT31;54397;47.506;19.158;2022-12-20T07:53:01;1.88;72.19
67572;SHT31;54397;47.506;19.158;2022-12-20T07:56:27;2.13;72.66
67572;SHT31;54397;47.506;19.158;2022-12-20T08:00:01;2.32;71.13
67572;SHT31;54397;47.506;19.158;2022-12-20T08:03:27;2.39;69.99
67572;SHT31;54397;47.506;19.158;2022-12-20T08:06:54;2.39;69.97
67572;SHT31;54397;47.506;19.158;2022-12-20T08:10:17;2.07;71.02
67572;SHT31;54397;47.506;19.158;2022-12-20T08:13:42;1.66;72.48
67572;SHT31;54397;47.506;19.158;2022-12-20T08:17:07;1.63;72.36
67572;SHT31;54397;47.506;19.158;2022-12-20T08:20:29;1.36;73.65
67572;SHT31;54397;47.506;19.158;2022-12-20T08:23:51;1.29;73.80
67572;SHT31;54397;47.506;19.158;2022-12-20T08:27:12;1.40;73.71
67572;SHT31;54397;47.506;19.158;2022-12-20T08:30:35;1.29;73.57
67572;SHT31;54397;47.506;19.158;2022-12-20T08:33:57;1.36;73.85
67572;SHT31;54397;47.506;19.158;2022-12-20T08:37:19;1.87;83.48
67572;SHT31;54397;47.506;19.158;2022-12-20T08:40:41;2.75;78.89
67572;SHT31;54397;47.506;19.158;2022-12-20T08:44:04;4.07;68.64
67572;SHT31;54397;47.506;19.158;2022-12-20T08:47:29;4.56;71.30
67572;SHT31;54397;47.506;19.158;2022-12-20T08:50:59;4.96;63.72
67572;SHT31;54397;47.506;19.158;2022-12-20T08:54:21;5.43;70.27
67572;SHT31;54397;47.506;19.158;2022-12-20T08:57:43;5.47;57.79
67572;SHT31;54397;47.506;19.158;2022-12-20T09:01:07;5.85;58.10
67572;SHT31;54397;47.506;19.158;2022-12-20T09:04:29;5.98;57.55
67572;SHT31;54397;47.506;19.158;2022-12-20T09:07:50;5.54;59.27
67572;SHT31;54397;47.506;19.158;2022-12-20T09:11:20;6.03;58.25
67572;SHT31;54397;47.506;19.158;2022-12-20T09:14:42;6.33;56.29
67572;SHT31;54397;47.506;19.158;2022-12-20T09:18:04;7.05;54.04
67572;SHT31;54397;47.506;19.158;2022-12-20T09:21:26;7.24;53.48
67572;SHT31;54397;47.506;19.158;2022-12-20T09:24:48;5.82;55.89
67572;SHT31;54397;47.506;19.158;2022-12-20T09:28:10;5.83;57.66
67572;SHT31;54397;47.506;19.158;2022-12-20T09:31:31;6.36;55.35
67572;SHT31;54397;47.506;19.158;2022-12-20T09:34:53;5.98;55.34
67572;SHT31;54397;47.506;19.158;2022-12-20T09:38:15;5.99;56.77
67572;SHT31;54397;47.506;19.158;2022-12-20T09:41:40;6.29;55.75
67572;SHT31;54397;47.506;19.158;2022-12-20T09:45:07;6.64;54.37
67572;SHT31;54397;47.506;19.158;2022-12-20T09:48:38;6.27;55.25
67572;SHT31;54397;47.506;19.158;2022-12-20T09:52:11;5.95;55.90
67572;SHT31;54397;47.506;19.158;2022-12-20T09:55:59;6.24;65.09
67572;SHT31;54397;47.506;19.158;2022-12-20T09:59:26;6.57;63.97
67572;SHT31;54397;47.506;19.158;2022-12-20T10:02:48;7.10;57.15
67572;SHT31;54397;47.506;19.158;2022-12-20T10:16:57;8.41;50.04
67572;SHT31;54397;47.506;19.158;2022-12-20T10:27:22;9.60;46.56
67572;SHT31;54397;47.506;19.158;2022-12-20T10:30:46;9.39;47.05
67572;SHT31;54397;47.506;19.158;2022-12-20T10:34:08;9.54;45.28
67572;SHT31;54397;47.506;19.158;2022-12-20T10:37:32;10.42;44.54
67572;SHT31;54397;47.506;19.158;2022-12-20T10:44:37;11.12;41.90
67572;SHT31;54397;47.506;19.158;2022-12-20T10:48:02;11.40;41.40
67572;SHT31;54397;47.506;19.158;2022-12-20T10:51:26;10.56;42.51
67572;SHT31;54397;47.506;19.158;2022-12-20T10:54:47;11.01;41.99
67572;SHT31;54397;47.506;19.158;2022-12-20T11:01:34;9.90;44.30
67572;SHT31;54397;47.506;19.158;2022-12-20T11:08:24;7.89;49.24
67572;SHT31;54397;47.506;19.158;2022-12-20T11:12:13;6.75;51.90
67572;SHT31;54397;47.506;19.158;2022-12-20T11:15:35;6.41;53.53
67572;SHT31;54397;47.506;19.158;2022-12-20T11:30:08;8.41;54.10
67572;SHT31;54397;47.506;19.158;2022-12-20T11:37:22;8.30;50.36
67572;SHT31;54397;47.506;19.158;2022-12-20T11:52:35;7.64;51.22
67572;SHT31;54397;47.506;19.158;2022-12-20T11:56:01;8.46;48.58
67572;SHT31;54397;47.506;19.158;2022-12-20T11:59:36;8.46;48.58
67572;SHT31;54397;47.506;19.158;2022-12-20T12:03:09;9.02;46.14
67572;SHT31;54397;47.506;19.158;2022-12-20T12:06:36;8.51;47.59
67572;SHT31;54397;47.506;19.158;2022-12-20T12:10:14;8.41;48.47
67572;SHT31;54397;47.506;19.158;2022-12-20T12:13:39;8.89;47.73
67572;SHT31;54397;47.506;19.158;2022-12-20T12:17:08;9.94;45.18
67572;SHT31;54397;47.506;19.158;2022-12-20T12:24:24;9.50;44.91
67572;SHT31;54397;47.506;19.158;2022-12-20T12:27:47;8.29;47.81
67572;SHT31;54397;47.506;19.158;2022-12-20T12:31:16;7.42;52.74
67572;SHT31;54397;47.506;19.158;2022-12-20T12:46:31;6.64;60.22
67572;SHT31;54397;47.506;19.158;2022-12-20T12:49:55;7.05;63.15
67572;SHT31;54397;47.506;19.158;2022-12-20T12:53:30;5.96;55.35
67572;SHT31;54397;47.506;19.158;2022-12-20T12:56:59;5.26;57.62
67572;SHT31;54397;47.506;19.158;2022-12-20T13:07:42;4.86;59.76
67572;SHT31;54397;47.506;19.158;2022-12-20T13:11:11;4.89;59.52
67572;SHT31;54397;47.506;19.158;2022-12-20T13:17:58;4.72;60.64
67572;SHT31;54397;47.506;19.158;2022-12-20T13:21:30;4.68;60.31
67572;SHT31;54397;47.506;19.158;2022-12-20T13:24:53;4.59;61.18
67572;SHT31;54397;47.506;19.158;2022-12-20T13:31:47;4.71;60.93
67572;SHT31;54397;47.506;19.158;2022-12-20T13:38:51;4.49;61.06
67572;SHT31;54397;47.506;19.158;2022-12-20T13:42:25;4.40;61.39
67572;SHT31;54397;47.506;19.158;2022-12-20T13:49:36;4.93;71.68
67572;SHT31;54397;47.506;19.158;2022-12-20T13:52:58;5.27;73.08
67572;SHT31;54397;47.506;19.158;2022-12-20T14:00:17;5.45;70.88
67572;SHT31;54397;47.506;19.158;2022-12-20T14:03:40;5.50;73.08
67572;SHT31;54397;47.506;19.158;2022-12-20T14:07:03;5.54;70.79
67572;SHT31;54397;47.506;19.158;2022-12-20T14:10:27;5.12;62.58
67572;SHT31;54397;47.506;19.158;2022-12-20T14:14:00;4.89;63.84
67572;SHT31;54397;47.506;19.158;2022-12-20T14:17:30;4.47;64.41
67572;SHT31;54397;47.506;19.158;2022-12-20T14:20:58;4.16;65.39
67572;SHT31;54397;47.506;19.158;2022-12-20T14:24:21;4.07;66.88
67572;SHT31;54397;47.506;19.158;2022-12-20T14:27:47;4.04;65.96
67572;SHT31;54397;47.506;19.158;2022-12-20T14:31:37;3.85;67.14
67572;SHT31;54397;47.506;19.158;2022-12-20T14:35:02;3.82;67.00
67572;SHT31;54397;47.506;19.158;2022-12-20T14:38:32;3.73;67.73
67572;SHT31;54397;47.506;19.158;2022-12-20T14:45:30;3.46;69.11
67572;SHT31;54397;47.506;19.158;2022-12-20T14:52:38;3.32;68.76
67572;SHT31;54397;47.506;19.158;2022-12-20T14:56:02;3.17;69.42
67572;SHT31;54397;47.506;19.158;2022-12-20T14:59:27;2.97;69.96
67572;SHT31;54397;47.506;19.158;2022-12-20T15:06:46;3.07;70.55
67572;SHT31;54397;47.506;19.158;2022-12-20T15:10:08;3.07;69.85
67572;SHT31;54397;47.506;19.158;2022-12-20T15:13:41;3.07;70.50
67572;SHT31;54397;47.506;19.158;2022-12-20T15:17:08;3.05;70.95
67572;SHT31;54397;47.506;19.158;2022-12-20T15:20:30;3.05;70.56
67572;SHT31;54397;47.506;19.158;2022-12-20T15:23:53;3.04;70.08
67572;SHT31;54397;47.506;19.158;2022-12-20T15:27:19;3.10;70.14
67572;SHT31;54397;47.506;19.158;2022-12-20T15:30:45;3.04;70.64
67572;SHT31;54397;47.506;19.158;2022-12-20T15:37:34;3.69;81.56
67572;SHT31;54397;47.506;19.158;2022-12-20T15:41:02;4.10;74.68
67572;SHT31;54397;47.506;19.158;2022-12-20T15:44:28;4.38;76.22
67572;SHT31;54397;47.506;19.158;2022-12-20T15:47:51;4.66;74.39
67572;SHT31;54397;47.506;19.158;2022-12-20T15:54:47;4.62;66.34
67572;SHT31;54397;47.506;19.158;2022-12-20T15:58:11;4.25;67.25
67572;SHT31;54397;47.506;19.158;2022-12-20T16:01:36;3.93;68.05
67572;SHT31;54397;47.506;19.158;2022-12-20T16:05:01;3.63;69.29
67572;SHT31;54397;47.506;19.158;2022-12-20T16:08:23;3.42;70.03
67572;SHT31;54397;47.506;19.158;2022-12-20T16:11:47;3.36;70.29
67572;SHT31;54397;47.506;19.158;2022-12-20T16:15:27;3.18;70.90
67572;SHT31;54397;47.506;19.158;2022-12-20T16:18:49;3.10;71.67
67572;SHT31;54397;47.506;19.158;2022-12-20T16:22:20;3.01;72.14
67572;SHT31;54397;47.506;19.158;2022-12-20T16:25:45;3.01;71.99
67572;SHT31;54397;47.506;19.158;2022-12-20T16:29:07;2.93;72.97
67572;SHT31;54397;47.506;19.158;2022-12-20T16:32:28;2.87;73.36
67572;SHT31;54397;47.506;19.158;2022-12-20T16:35:50;2.94;76.74
67572;SHT31;54397;47.506;19.158;2022-12-20T16:39:12;3.27;79.67
67572;SHT31;54397;47.506;19.158;2022-12-20T16:42:34;3.65;82.54
67572;SHT31;54397;47.506;19.158;2022-12-20T16:45:58;3.96;80.92
67572;SHT31;54397;47.506;19.158;2022-12-20T16:49:22;4.00;79.40
67572;SHT31;54397;47.506;19.158;2022-12-20T16:52:45;4.21;77.85
67572;SHT31;54397;47.506;19.158;2022-12-20T16:56:12;4.47;77.42
67572;SHT31;54397;47.506;19.158;2022-12-20T16:59:34;4.47;77.73
67572;SHT31;54397;47.506;19.158;2022-12-20T17:02:55;4.13;70.30
67572;SHT31;54397;47.506;19.158;2022-12-20T17:06:19;3.78;70.81
67572;SHT31;54397;47.506;19.158;2022-12-20T17:09:41;3.51;71.95
67572;SHT31;54397;47.506;19.158;2022-12-20T17:13:03;3.34;72.86
67572;SHT31;54397;47.506;19.158;2022-12-20T17:16:30;3.27;72.92
67572;SHT31;54397;47.506;19.158;2022-12-20T17:19:52;3.03;74.12
67572;SHT31;54397;47.506;19.158;2022-12-20T17:23:14;2.94;74.76
67572;SHT31;54397;47.506;19.158;2022-12-20T17:26:36;2.97;74.39
67572;SHT31;54397;47.506;19.158;2022-12-20T17:29:57;2.99;74.11
67572;SHT31;54397;47.506;19.158;2022-12-20T17:33:19;3.08;73.84
67572;SHT31;54397;47.506;19.158;2022-12-20T17:36:43;2.90;74.43
67572;SHT31;54397;47.506;19.158;2022-12-20T17:40:06;3.10;83.42
67572;SHT31;54397;47.506;19.158;2022-12-20T17:43:27;3.42;85.15
67572;SHT31;54397;47.506;19.158;2022-12-20T17:46:49;3.86;81.52
67572;SHT31;54397;47.506;19.158;2022-12-20T17:50:17;4.13;80.99
67572;SHT31;54397;47.506;19.158;2022-12-20T17:53:39;4.37;80.59
67572;SHT31;54397;47.506;19.158;2022-12-20T17:57:03;4.49;80.42
67572;SHT31;54397;47.506;19.158;2022-12-20T18:00:28;4.48;77.35
67572;SHT31;54397;47.506;19.158;2022-12-20T18:04:03;4.06;70.70
67572;SHT31;54397;47.506;19.158;2022-12-20T18:07:26;3.72;72.04
67572;SHT31;54397;47.506;19.158;2022-12-20T18:10:48;3.51;72.37
67572;SHT31;54397;47.506;19.158;2022-12-20T18:14:13;3.36;73.35
67572;SHT31;54397;47.506;19.158;2022-12-20T18:17:40;3.22;74.06
67572;SHT31;54397;47.506;19.158;2022-12-20T18:21:13;3.01;74.35
67572;SHT31;54397;47.506;19.158;2022-12-20T18:24:35;2.84;74.93
67572;SHT31;54397;47.506;19.158;2022-12-20T18:27:57;2.80;74.93
67572;SHT31;54397;47.506;19.158;2022-12-20T18:31:23;2.84;75.14
67572;SHT31;54397;47.506;19.158;2022-12-20T18:34:46;2.69;75.64
67572;SHT31;54397;47.506;19.158;2022-12-20T18:38:09;2.63;76.29
67572;SHT31;54397;47.506;19.158;2022-12-20T18:41:30;2.83;83.70
67572;SHT31;54397;47.506;19.158;2022-12-20T18:44:52;3.36;84.82
67572;SHT31;54397;47.506;19.158;2022-12-20T18:48:14;3.63;82.92
67572;SHT31;54397;47.506;19.158;2022-12-20T18:51:37;4.00;81.75
67572;SHT31;54397;47.506;19.158;2022-12-20T18:54:59;4.14;80.58
67572;SHT31;54397;47.506;19.158;2022-12-20T18:58:23;4.27;79.86
67572;SHT31;54397;47.506;19.158;2022-12-20T19:01:45;4.36;79.60
67572;SHT31;54397;47.506;19.158;2022-12-20T19:05:12;4.59;81.35
67572;SHT31;54397;47.506;19.158;2022-12-20T19:08:33;4.90;83.71
67572;SHT31;54397;47.506;19.158;2022-12-20T19:11:58;5.07;80.75
67572;SHT31;54397;47.506;19.158;2022-12-20T19:15:20;4.79;76.03
67572;SHT31;54397;47.506;19.158;2022-12-20T19:18:42;4.75;77.22
67572;SHT31;54397;47.506;19.158;2022-12-20T19:22:04;4.66;77.39
67572;SHT31;54397;47.506;19.158;2022-12-20T19:25:25;4.71;78.58
67572;SHT31;54397;47.506;19.158;2022-12-20T19:28:47;4.65;80.07
67572;SHT31;54397;47.506;19.158;2022-12-20T19:32:11;4.55;77.25
67572;SHT31;54397;47.506;19.158;2022-12-20T19:35:35;4.52;76.24
67572;SHT31;54397;47.506;19.158;2022-12-20T19:39:18;4.33;75.53
67572;SHT31;54397;47.506;19.158;2022-12-20T19:42:41;4.38;78.38
67572;SHT31;54397;47.506;19.158;2022-12-20T19:46:03;4.59;79.74
67572;SHT31;54397;47.506;19.158;2022-12-20T19:49:27;4.54;77.82
67572;SHT31;54397;47.506;19.158;2022-12-20T19:52:50;4.41;79.87
67572;SHT31;54397;47.506;19.158;2022-12-20T19:56:17;4.55;79.58
67572;SHT31;54397;47.506;19.158;2022-12-20T19:59:39;4.58;76.89
67572;SHT31;54397;47.506;19.158;2022-12-20T20:03:01;4.51;76.86
67572;SHT31;54397;47.506;19.158;2022-12-20T20:06:26;4.51;77.42
67572;SHT31;54397;47.506;19.158;2022-12-20T20:09:48;4.52;77.36
67572;SHT31;54397;47.506;19.158;2022-12-20T20:13:12;4.65;77.47
67572;SHT31;54397;47.506;19.158;2022-12-20T20:16:34;4.40;75.46
67572;SHT31;54397;47.506;19.158;2022-12-20T20:19:56;4.42;77.70
67572;SHT31;54397;47.506;19.158;2022-12-20T20:23:18;4.55;78.36
67572;SHT31;54397;47.506;19.158;2022-12-20T20:26:40;4.44;77.06
67572;SHT31;54397;47.506;19.158;2022-12-20T20:30:03;4.48;77.67
67572;SHT31;54397;47.506;19.158;2022-12-20T20:33:25;4.49;77.95
67572;SHT31;54397;47.506;19.158;2022-12-20T20:36:47;4.59;78.32
67572;SHT31;54397;47.506;19.158;2022-12-20T20:40:09;4.59;78.35
67572;SHT31;54397;47.506;19.158;2022-12-20T20:43:34;4.65;76.94
67572;SHT31;54397;47.506;19.158;2022-12-20T20:46:59;4.73;77.54
67572;SHT31;54397;47.506;19.158;2022-12-20T20:50:24;4.58;76.61
67572;SHT31;54397;47.506;19.158;2022-12-20T20:53:45;4.51;78.19
67572;SHT31;54397;47.506;19.158;2022-12-20T20:57:07;4.47;77.59
67572;SHT31;54397;47.506;19.158;2022-12-20T21:00:33;4.41;77.21
67572;SHT31;54397;47.506;19.158;2022-12-20T21:03:55;4.37;77.54
67572;SHT31;54397;47.506;19.158;2022-12-20T21:07:17;4.49;78.50
67572;SHT31;54397;47.506;19.158;2022-12-20T21:10:39;4.68;78.09
67572;SHT31;54397;47.506;19.158;2022-12-20T21:14:01;4.68;76.40
67572;SHT31;54397;47.506;19.158;2022-12-20T21:17:23;4.52;78.31
67572;SHT31;54397;47.506;19.158;2022-12-20T21:20:47;4.51;74.90
67572;SHT31;54397;47.506;19.158;2022-12-20T21:24:11;4.45;77.33
67572;SHT31;54397;47.506;19.158;2022-12-20T21:27:33;4.48;76.81
67572;SHT31;54397;47.506;19.158;2022-12-20T21:31:02;4.41;78.72
67572;SHT31;54397;47.506;19.158;2022-12-20T21:34:26;4.45;77.46
67572;SHT31;54397;47.506;19.158;2022-12-20T21:37:48;4.22;78.49
67572;SHT31;54397;47.506;19.158;2022-12-20T21:41:13;4.24;77.57
67572;SHT31;54397;47.506;19.158;2022-12-20T21:44:39;4.27;78.41
67572;SHT31;54397;47.506;19.158;2022-12-20T21:48:01;4.40;79.00
67572;SHT31;54397;47.506;19.158;2022-12-20T21:51:25;4.47;78.19
67572;SHT31;54397;47.506;19.158;2022-12-20T21:54:49;4.28;77.64
67572;SHT31;54397;47.506;19.158;2022-12-20T21:58:11;4.21;77.62
67572;SHT31;54397;47.506;19.158;2022-12-20T22:01:32;4.14;78.58
67572;SHT31;54397;47.506;19.158;2022-12-20T22:04:54;4.30;79.79
67572;SHT31;54397;47.506;19.158;2022-12-20T22:08:16;4.04;70.37
67572;SHT31;54397;47.506;19.158;2022-12-20T22:11:38;3.52;71.12
67572;SHT31;54397;47.506;19.158;2022-12-20T22:15:00;3.25;73.19
67572;SHT31;54397;47.506;19.158;2022-12-20T22:18:23;3.00;73.43
67572;SHT31;54397;47.506;19.158;2022-12-20T22:21:45;2.96;73.89
67572;SHT31;54397;47.506;19.158;2022-12-20T22:25:10;2.80;75.10
67572;SHT31;54397;47.506;19.158;2022-12-20T22:28:31;2.72;75.14
67572;SHT31;54397;47.506;19.158;2022-12-20T22:31:53;2.69;74.77
67572;SHT31;54397;47.506;19.158;2022-12-20T22:35:15;2.65;75.11
67572;SHT31;54397;47.506;19.158;2022-12-20T22:38:43;2.59;75.05
67572;SHT31;54397;47.506;19.158;2022-12-20T22:42:08;2.49;75.62
67572;SHT31;54397;47.506;19.158;2022-12-20T22:45:30;2.57;75.45
67572;SHT31;54397;47.506;19.158;2022-12-20T22:48:52;2.60;74.54
67572;SHT31;54397;47.506;19.158;2022-12-20T22:52:13;2.53;75.25
67572;SHT31;54397;47.506;19.158;2022-12-20T22:55:35;2.45;75.23
67572;SHT31;54397;47.506;19.158;2022-12-20T22:58:59;2.48;75.48
67572;SHT31;54397;47.506;19.158;2022-12-20T23:02:24;2.53;74.75
67572;SHT31;54397;47.506;19.158;2022-12-20T23:05:54;2.49;75.30
67572;SHT31;54397;47.506;19.158;2022-12-20T23:09:22;2.49;75.48
67572;SHT31;54397;47.506;19.158;2022-12-20T23:12:43;2.57;75.11
67572;SHT31;54397;47.506;19.158;2022-12-20T23:16:24;2.65;74.61
67572;SHT31;54397;47.506;19.158;2022-12-20T23:19:46;2.60;74.58
67572;SHT31;54397;47.506;19.158;2022-12-20T23:23:28;2.55;74.55
67572;SHT31;54397;47.506;19.158;2022-12-20T23:26:50;2.57;74.12
67572;SHT31;54397;47.506;19.158;2022-12-20T23:30:13;2.52;74.11
67572;SHT31;54397;47.506;19.158;2022-12-20T23:33:36;2.46;74.81